Flight Track Log - Related Links

Times and Time Zones

All times are in EST time to prevent confusion due to time zone crossing. See the UPS2774 flight status page for this flight to view local times or setup timezone preferences in your user account.

Time Position Orientation Groundspeed Altitude Reporting Facility
EST Latitude Longitude Course Direction KTS MPH feet Rate Location/Type
Thu 04:53:13 PM 38.0667 -85.7500 227° Southwest 244 281 5,000  Level Louisville TRACON
Thu 04:54:28 PM 38.0758 -85.8525 277° West 255 293 8,400 2,540 Climbing Indianapolis Center
Thu 04:55:30 PM 38.0736 -85.9433 268° West 258 297 10,800 2,710 Climbing Indianapolis Center
Thu 04:56:32 PM 38.0111 -86.0483 233° Southwest 311 358 14,000 3,194 Climbing Indianapolis Center
Thu 04:57:00 PM 37.8135 -86.2240 227° Southwest  Level Estimated
Thu 04:57:34 PM 37.9400 -86.1258 221° Southwest 338 389 17,400  Level Indianapolis Center
Thu 04:58:00 PM 37.7411 -86.3209 227° Southwest  Level Estimated
Thu 04:58:36 PM 37.8625 -86.2025 218° Southwest 350 403 20,100  Level Indianapolis Center
Thu 04:59:38 PM 37.7819 -86.2817 218° Southwest 366 421 22,600 2,448 Climbing Indianapolis Center
Thu 05:00:41 PM 37.6967 -86.3675 219° Southwest 382 440 25,200 2,304 Climbing Indianapolis Center
Thu 05:01:43 PM 37.6086 -86.4542 218° Southwest 395 455 27,400 2,177 Climbing Indianapolis Center
Thu 05:02:45 PM 37.5039 -86.5569 218° Southwest 404 465 29,700 2,129 Climbing Indianapolis Center
Thu 05:03:47 PM 37.4128 -86.6469 218° Southwest 411 473 31,800 1,113 Climbing Indianapolis Center
Thu 05:04:49 PM 37.3222 -86.7367 218° Southwest 412 474 32,000 97 Climbing Indianapolis Center
Thu 05:05:51 PM 37.2303 -86.8250 217° Southwest 412 474 32,000 387 Level Indianapolis Center
Thu 05:06:53 PM 37.1383 -86.9139 218° Southwest 415 478 32,800 1,250 Climbing Indianapolis Center
Thu 05:07:27 PM 37.0803 -86.9725 219° Southwest 407 468 34,000 750 Climbing Memphis Center
Thu 05:08:29 PM 36.9942 -87.0553 218° Southwest 393 452 34,000  Level Memphis Center
Thu 05:09:31 PM 36.9086 -87.1381 218° Southwest 387 445 34,000  Level Memphis Center
Thu 05:10:33 PM 36.8225 -87.2203 217° Southwest 388 447 34,000  Level Memphis Center
Thu 05:11:35 PM 36.7361 -87.3039 218° Southwest 391 450 34,000  Level Memphis Center
Thu 05:12:37 PM 36.6489 -87.3872 217° Southwest 392 451 34,000  Level Memphis Center
Thu 05:13:39 PM 36.5467 -87.4853 218° Southwest 395 455 34,000  Level Memphis Center
Thu 05:14:41 PM 36.4583 -87.5681 217° Southwest 396 456 34,000  Level Memphis Center
Thu 05:15:43 PM 36.3703 -87.6508 217° Southwest 396 456 34,000  Level Memphis Center
Thu 05:16:46 PM 36.2836 -87.7339 218° Southwest 393 452 34,000  Level Memphis Center
Thu 05:17:48 PM 36.1950 -87.8169 217° Southwest 394 453 34,000  Level Memphis Center
Thu 05:18:50 PM 36.1075 -87.9000 217° Southwest 395 455 34,000  Level Memphis Center
Thu 05:19:52 PM 36.0047 -87.9953 217° Southwest 393 452 34,000  Level Memphis Center
Thu 05:20:54 PM 35.9158 -88.0783 217° Southwest 395 455 34,000  Level Memphis Center
Thu 05:21:56 PM 35.8311 -88.1569 217° Southwest 397 457 34,000  Level Memphis Center
Thu 05:22:58 PM 35.7428 -88.2375 217° Southwest 394 453 34,000  Level Memphis Center
Thu 05:24:00 PM 35.6544 -88.3208 217° Southwest 396 456 34,000  Level Memphis Center
Thu 05:25:02 PM 35.5658 -88.4022 217° Southwest 395 455 34,000  Level Memphis Center
Thu 05:26:04 PM 35.4586 -88.5008 217° Southwest 398 458 34,000  Level Memphis Center
Thu 05:27:06 PM 35.3650 -88.5856 216° Southwest 401 461 34,000  Level Memphis Center
Thu 05:28:08 PM 35.2756 -88.6678 217° Southwest 399 459 34,000  Level Memphis Center
Thu 05:29:10 PM 35.1847 -88.7503 217° Southwest 400 460 34,000  Level Memphis Center
Thu 05:30:12 PM 35.0944 -88.8322 217° Southwest 401 461 34,000  Level Memphis Center
Thu 05:31:14 PM 35.0025 -88.9158 217° Southwest 404 465 34,000  Level Memphis Center
Thu 05:32:16 PM 34.9106 -88.9992 217° Southwest 406 467 34,000  Level Memphis Center
Thu 05:33:18 PM 34.8178 -89.0825 216° Southwest 408 470 34,000  Level Memphis Center
Thu 05:34:21 PM 34.7242 -89.1669 217° Southwest 411 473 34,000  Level Memphis Center
Thu 05:35:23 PM 34.6144 -89.2644 216° Southwest 412 474 34,000  Level Memphis Center
Thu 05:36:25 PM 34.5189 -89.3492 216° Southwest 416 479 34,000  Level Memphis Center
Thu 05:37:27 PM 34.4256 -89.4347 217° Southwest 415 478 34,000  Level Memphis Center
Thu 05:38:29 PM 34.3306 -89.5181 216° Southwest 416 479 34,000  Level Memphis Center
Thu 05:39:31 PM 34.2361 -89.6014 216° Southwest 414 476 34,000  Level Memphis Center
Thu 05:40:33 PM 34.1425 -89.6850 216° Southwest 414 476 34,000  Level Memphis Center
Thu 05:41:35 PM 34.0492 -89.7672 216° Southwest 411 473 34,000  Level Memphis Center
Thu 05:42:37 PM 33.9561 -89.8497 216° Southwest 410 472 34,000  Level Memphis Center
Thu 05:43:39 PM 33.8625 -89.9317 216° Southwest 411 473 34,000  Level Memphis Center
Thu 05:44:41 PM 33.7594 -90.0208 216° Southwest 412 474 34,000  Level Memphis Center
Thu 05:45:43 PM 33.6669 -90.1019 216° Southwest 414 476 34,000  Level Memphis Center
Thu 05:46:45 PM 33.5736 -90.1822 216° Southwest 416 479 34,000  Level Memphis Center
Thu 05:47:47 PM 33.4622 -90.2797 216° Southwest 418 481 34,000  Level Memphis Center
Thu 05:48:49 PM 33.3753 -90.3694 221° Southwest 417 480 34,000  Level Memphis Center
Thu 05:49:51 PM 33.2881 -90.4600 221° Southwest 420 483 34,000  Level Memphis Center
Thu 05:50:53 PM 33.2008 -90.5492 221° Southwest 418 481 34,000  Level Memphis Center
Thu 05:51:56 PM 33.1147 -90.6406 222° Southwest 418 481 34,000  Level Memphis Center
Thu 05:52:58 PM 33.0089 -90.7472 220° Southwest 420 483 34,000  Level Memphis Center
Thu 05:54:00 PM 32.9214 -90.8378 221° Southwest 419 482 34,000  Level Memphis Center
Thu 05:55:02 PM 32.8347 -90.9269 221° Southwest 418 481 34,000  Level Memphis Center
Thu 05:56:04 PM 32.7475 -91.0150 220° Southwest 415 478 34,000  Level Memphis Center
Thu 05:57:06 PM 32.6433 -91.1228 221° Southwest 417 480 34,000  Level Memphis Center
Thu 05:58:08 PM 32.5539 -91.2108 220° Southwest 419 482 34,000  Level Memphis Center
Thu 05:59:12 PM 32.4667 -91.3006 221° Southwest 418 481 34,000  Level Memphis Center
Thu 06:00:14 PM 32.3772 -91.3906 220° Southwest 423 487 34,000  Level Memphis Center
Thu 06:01:22 PM 32.2703 -91.4969 220° Southwest 425 489 34,000  Level Houston Center
Thu 06:02:24 PM 32.1817 -91.5875 221° Southwest 424 488 34,000  Level Houston Center
Thu 06:03:26 PM 32.0914 -91.6772 220° Southwest 423 487 34,000  Level Houston Center
Thu 06:04:29 PM 31.9828 -91.7844 220° Southwest 424 488 34,000  Level Houston Center
Thu 06:05:31 PM 31.8933 -91.8750 221° Southwest 425 489 34,000  Level Houston Center
Thu 06:06:33 PM 31.8031 -91.9633 220° Southwest 423 487 34,000  Level Houston Center
Thu 06:07:35 PM 31.7147 -92.0519 220° Southwest 425 489 34,000  Level Houston Center
Thu 06:08:37 PM 31.6253 -92.1406 220° Southwest 423 487 34,000  Level Houston Center
Thu 06:09:39 PM 31.5158 -92.2461 219° Southwest 425 489 34,000  Level Houston Center
Thu 06:10:41 PM 31.4314 -92.3422 224° Southwest 425 489 34,000  Level Houston Center
Thu 06:11:44 PM 31.3633 -92.4561 235° Southwest 427 491 34,000  Level Houston Center
Thu 06:12:46 PM 31.2961 -92.5683 235° Southwest 425 489 34,000  Level Houston Center
Thu 06:13:48 PM 31.2297 -92.6817 236° Southwest 423 487 34,000  Level Houston Center
Thu 06:14:50 PM 31.1481 -92.8164 235° Southwest 423 487 34,000  Level Houston Center
Thu 06:15:52 PM 31.0800 -92.9292 235° Southwest 426 490 34,000  Level Houston Center
Thu 06:16:54 PM 31.0122 -93.0414 235° Southwest 425 489 34,000  Level Houston Center
Thu 06:17:56 PM 30.9439 -93.1544 235° Southwest 427 491 34,000 -48 Level Houston Center
Thu 06:18:59 PM 30.8753 -93.2664 234° Southwest 428 493 33,900 -624 Descending Houston Center
Thu 06:20:01 PM 30.8092 -93.3733 234° Southwest 412 474 32,700 -1,597 Descending Houston Center
Thu 06:21:03 PM 30.7364 -93.4936 235° Southwest 385 443 30,600 -1,790 Descending Houston Center
Thu 06:22:05 PM 30.6769 -93.5900 234° Southwest 375 432 29,000 -2,081 Descending Houston Center
Thu 06:23:07 PM 30.6197 -93.6847 235° Southwest 365 420 26,300 -3,242 Descending Houston Center
Thu 06:24:09 PM 30.5556 -93.7869 234° Southwest 387 445 22,300 -2,855 Descending Houston Center
Thu 06:25:11 PM 30.4750 -93.9189 235° Southwest 417 480 20,400 -1,694 Descending Houston Center
Thu 06:26:13 PM 30.4111 -94.0217 234° Southwest 401 461 18,800 -1,500 Descending Houston Center
Thu 06:26:55 PM 30.3647 -94.0953 234° Southwest 391 450 17,800 -1,355 Descending Houston Center
Thu 06:27:15 PM 30.3478 -94.1222 234° Southwest 392 451 17,400 -2,325 Descending Houston Center
Thu 06:28:15 PM 30.2850 -94.2222 234° Southwest 347 399 14,700 -2,476 Descending Houston Center
Thu 06:28:18 PM 30.2897 -94.2150 53° Northeast 362 417 14,800 -1,672 Climbing Houston Center
Thu 06:29:16 PM 30.2356 -94.3161 238° Southwest 325 374 13,000 -1,548 Descending Houston Center
Thu 06:29:20 PM 30.2383 -94.3022 77° East 332 382 13,200 -968 Climbing Houston Center
Thu 06:30:18 PM 30.2117 -94.4158 255° West 315 362 12,000 -1,161 Descending Houston Center
Thu 06:30:22 PM 30.2111 -94.4200 261° West 315 362 12,000  Level Houston Center
Thu 06:31:24 PM 30.1911 -94.5100 256° West 319 367 12,000  Level Houston Center
Thu 06:31:25 PM 30.1869 -94.5281 255° West 320 368 12,000 -107 Level Houston Center
Thu 06:32:20 PM 30.1667 -94.6200 256° West 322 371 11,900  Descending Houston Center
Thu 06:32:26 PM 30.1703 -94.6100 67° East 320 368 12,000 -1,059 Climbing Houston Center
Thu 06:33:28 PM 30.1444 -94.7267 256° West 313 360 10,700 -1,135 Descending Houston Center
Thu 06:34:17 PM 30.1272 -94.7992 255° West 280 322 9,900 -1,065 Descending Houston Center
Thu 06:34:30 PM 30.1253 -94.8133 261° West 285 328 9,600 -1,355 Descending Houston Center
Thu 06:35:19 PM 30.1083 -94.8886 255° West 277 319 8,500 -1,161 Descending Houston Center
Thu 06:35:32 PM 30.1064 -94.8989 258° West 277 319 8,400 -1,279 Descending Houston Center
Thu 06:36:20 PM 30.1058 -94.9733 270° West 272 313 7,200 -1,333 Descending Houston Center
Thu 06:36:35 PM 30.1058 -94.9847 270° West 268 308 7,000 -1,180 Descending Houston Center
Thu 06:37:21 PM 30.1061 -95.0653 270° West 269 310 6,000 -968 Descending Houston Center
Thu 06:37:37 PM 30.1061 -95.0703 270° West 269 310 6,000  Level Houston Center
Thu 06:38:39 PM 30.1056 -95.1744 270° West 272 313 6,000  Level Houston Center
Thu 06:39:29 PM 30.1061 -95.2464 271° West 245 282 6,000  Level Houston Center
Thu 06:39:41 PM 30.1064 -95.2572 272° West 264 304 6,000  Level Houston Center
Thu 06:40:31 PM 30.1069 -95.3236 271° West 234 269 6,000  Level Houston Center
Thu 06:40:43 PM 30.1061 -95.3300 261° West 238 274 6,000  Level Houston Center
Thu 06:41:26 PM 30.1069 -95.3936 271° West 231 266 6,000  Level Houston Center
Thu 06:41:45 PM 30.1072 -95.4042 272° West 232 267 6,000 -896 Level Houston Center
Thu 06:42:33 PM 30.1061 -95.4758 269° West 230 265 5,000 -1,065 Descending Houston Center
Thu 06:42:47 PM 30.1067 -95.4783 284° West 232 267 4,900 -1,091 Descending Houston Center
Thu 06:43:28 PM 30.1078 -95.5408 271° West 221 254 4,000 -1,258 Descending Houston Center
Thu 06:43:49 PM 30.1067 -95.5628 267° West 222 255 3,600 -968 Descending Houston Center
Thu 06:44:30 PM 30.0992 -95.6094 259° West 214 246 3,000 -571 Descending Houston Center
Thu 06:44:52 PM 30.0961 -95.6300 260° West 216 249 3,000  Level Houston Center
Thu 06:45:31 PM 30.0886 -95.6806 260° West 217 250 3,000  Level Houston Center
Thu 06:45:54 PM 30.0839 -95.6967 251° West 214 246 3,000  Level Houston Center
Thu 06:46:38 PM 30.0367 -95.7086 192° South 200 230 3,000  Level Houston Center
Thu 06:46:56 PM 30.0261 -95.7081 177° South 214 246 3,000  Level Houston Center
Thu 06:47:33 PM 30.0044 -95.6761 128° Southeast 228 262 3,000 97 Level Houston Center
Thu 06:47:58 PM 30.0050 -95.6564 88° East 232 267 3,100  Climbing Houston Center
Thu 06:48:34 PM 30.0067 -95.6083 88° East 206 237 3,000 -97 Descending Houston Center
Thu 06:49:00 PM 30.0064 -95.5911 91° East 208 239 3,000  Level Houston Center
Thu 06:49:36 PM 30.0067 -95.5383 90° East 211 243 3,000 -387 Level Houston Center
Thu 06:50:02 PM 30.0064 -95.5092 91° East 210 242 2,600 -984 Descending Houston Center
Thu 06:50:37 PM 30.0069 -95.4708 89° East 204 235 2,000 -968 Descending Houston Center
Thu 06:51:04 PM 30.0069 -95.4450 90° East 208 239 1,600 -885 Descending Houston Center
Thu 06:51:38 PM 30.0064 -95.4178 91° East 141 162 1,100 -762 Descending Houston Center
Thu 06:52:07 PM 30.0072 -95.3981 87° East 174 200 800 -689 Descending Houston Center
Thu 06:52:39 PM 30.0064 -95.3719 92° East 140 161 400 -387 Descending Houston Center
Thu 06:53:09 PM 30.0067 -95.3467 89° East 158 182 400  Level Houston Center

Login

Don't have an account? Register now (free) for customized features, flight alerts, and more!